createdAt,value
2023-11-16T00:01:21.684Z,60.45
2023-11-16T00:03:49.723Z,59.97
2023-11-16T00:06:16.234Z,60.31
2023-11-16T00:08:42.736Z,60.60
2023-11-16T00:11:09.222Z,60.13
2023-11-16T00:13:35.731Z,60.34
2023-11-16T00:16:02.286Z,60.52
2023-11-16T00:18:31.739Z,60.17
2023-11-16T00:20:59.483Z,60.35
2023-11-16T00:23:26.039Z,60.15
2023-11-16T00:25:52.544Z,59.76
2023-11-16T00:28:21.187Z,60.15
2023-11-16T00:30:47.750Z,60.65
2023-11-16T00:33:28.372Z,59.82
2023-11-16T00:35:54.952Z,60.14
2023-11-16T00:38:21.437Z,59.97
2023-11-16T00:40:47.951Z,60.93
2023-11-16T00:43:14.446Z,60.87
2023-11-16T00:45:41.003Z,60.86
2023-11-16T00:48:07.658Z,60.78
2023-11-16T00:50:34.169Z,61.20
2023-11-16T00:53:00.613Z,60.80
2023-11-16T00:55:27.112Z,61.02
2023-11-16T00:57:53.545Z,61.42
2023-11-16T01:00:20.247Z,61.46
2023-11-16T01:02:47.010Z,61.54
2023-11-16T01:05:13.529Z,61.52
2023-11-16T01:07:40.162Z,61.23
2023-11-16T01:10:06.722Z,61.41
2023-11-16T01:12:33.220Z,61.15
2023-11-16T01:14:59.752Z,60.91
2023-11-16T01:17:26.329Z,61.62
2023-11-16T01:19:55.263Z,60.59
2023-11-16T01:22:21.737Z,58.61
2023-11-16T01:24:48.270Z,54.44
2023-11-16T01:27:14.865Z,54.05
2023-11-16T01:29:41.376Z,53.34
2023-11-16T01:32:07.811Z,54.45
2023-11-16T01:34:34.331Z,54.17
2023-11-16T01:37:00.729Z,53.53
2023-11-16T01:39:27.213Z,53.25
2023-11-16T01:41:53.685Z,53.51
2023-11-16T01:44:20.102Z,52.90
2023-11-16T01:46:46.562Z,53.67
2023-11-16T01:49:13.018Z,53.68
2023-11-16T01:51:39.467Z,54.38
2023-11-16T01:54:05.964Z,53.89
2023-11-16T01:56:32.435Z,53.94
2023-11-16T01:58:58.931Z,54.81
2023-11-16T02:01:25.412Z,55.34
2023-11-16T02:03:51.972Z,55.68
2023-11-16T02:06:18.509Z,55.88
2023-11-16T02:08:44.922Z,55.80
2023-11-16T02:11:11.402Z,55.83
2023-11-16T02:13:37.866Z,56.49
2023-11-16T02:16:04.406Z,57.07
2023-11-16T02:18:30.853Z,56.72
2023-11-16T02:20:57.318Z,57.38
2023-11-16T02:23:23.813Z,57.88
2023-11-16T02:25:50.257Z,58.45
2023-11-16T02:28:16.760Z,58.85
2023-11-16T02:30:43.256Z,59.17
2023-11-16T02:33:09.866Z,59.11
2023-11-16T02:35:36.337Z,59.87
2023-11-16T02:38:02.870Z,60.44
2023-11-16T02:40:29.424Z,60.28
2023-11-16T02:42:55.910Z,60.11
2023-11-16T02:45:22.421Z,60.09
2023-11-16T02:47:48.957Z,59.86
2023-11-16T02:50:15.468Z,60.06
2023-11-16T02:52:41.921Z,60.06
2023-11-16T02:55:08.390Z,59.74
2023-11-16T02:57:34.916Z,59.20
2023-11-16T03:00:01.625Z,59.22
2023-11-16T03:02:28.178Z,59.50
2023-11-16T03:04:57.716Z,58.91
2023-11-16T03:07:30.808Z,58.77
2023-11-16T03:09:59.806Z,58.20
2023-11-16T03:12:26.333Z,58.45
2023-11-16T03:14:52.898Z,58.48
2023-11-16T03:17:19.346Z,58.14
2023-11-16T03:19:45.798Z,58.45
2023-11-16T03:22:12.237Z,58.56
2023-11-16T03:24:38.689Z,57.84
2023-11-16T03:27:05.258Z,57.52
2023-11-16T03:29:31.664Z,57.05
2023-11-16T03:31:58.215Z,58.03
2023-11-16T03:34:24.760Z,56.74
2023-11-16T03:36:51.250Z,55.40
2023-11-16T03:39:17.679Z,57.16
2023-11-16T03:41:44.152Z,57.06
2023-11-16T03:44:10.622Z,56.85
2023-11-16T03:46:39.345Z,56.64
2023-11-16T03:49:05.920Z,54.74
2023-11-16T03:51:32.494Z,55.04
2023-11-16T03:53:58.944Z,54.94
2023-11-16T03:56:25.416Z,55.84
2023-11-16T03:58:51.907Z,55.75
2023-11-16T04:01:18.369Z,56.09
2023-11-16T04:03:45.116Z,56.41
2023-11-16T04:06:13.213Z,56.62
2023-11-16T04:08:42.404Z,56.79
2023-11-16T04:11:08.878Z,57.49
2023-11-16T04:13:35.301Z,57.25
2023-11-16T04:16:01.809Z,57.12
2023-11-16T04:18:28.324Z,57.25
2023-11-16T04:20:54.892Z,57.41
2023-11-16T04:23:21.359Z,57.17
2023-11-16T04:25:47.836Z,57.62
2023-11-16T04:28:14.382Z,57.75
2023-11-16T04:30:40.911Z,57.67
2023-11-16T04:33:07.549Z,58.34
2023-11-16T04:35:35.391Z,58.09
2023-11-16T04:38:01.865Z,57.32
2023-11-16T04:40:28.279Z,57.66
2023-11-16T04:42:54.697Z,57.32
2023-11-16T04:45:21.138Z,58.26
2023-11-16T04:47:49.750Z,57.99
2023-11-16T04:50:16.501Z,58.14
2023-11-16T04:52:42.963Z,57.39
2023-11-16T04:55:12.209Z,57.36
2023-11-16T04:57:40.373Z,58.49
2023-11-16T05:00:06.877Z,58.09
2023-11-16T05:02:33.425Z,58.34
2023-11-16T05:05:00.005Z,58.60
2023-11-16T05:07:26.453Z,59.32
2023-11-16T05:09:55.388Z,59.36
2023-11-16T05:12:22.125Z,59.34
2023-11-16T05:14:48.617Z,60.04
2023-11-16T05:17:15.056Z,59.40
2023-11-16T05:19:41.486Z,58.95
2023-11-16T05:22:07.968Z,57.86
2023-11-16T05:24:34.479Z,58.05
2023-11-16T05:27:01.001Z,58.27
2023-11-16T05:29:27.396Z,58.10
2023-11-16T05:31:53.858Z,58.52
2023-11-16T05:34:20.258Z,58.00
2023-11-16T05:36:46.751Z,58.22
2023-11-16T05:39:13.208Z,58.91
2023-11-16T05:41:39.701Z,57.89
2023-11-16T05:44:06.239Z,58.05
2023-11-16T05:46:35.402Z,58.14
2023-11-16T05:49:01.861Z,58.90
2023-11-16T05:51:31.330Z,58.53
2023-11-16T05:53:57.792Z,58.69
2023-11-16T05:56:24.240Z,57.85
2023-11-16T05:58:50.681Z,57.99
2023-11-16T06:01:17.206Z,57.49
2023-11-16T06:03:43.809Z,57.86
2023-11-16T06:06:10.392Z,57.73
2023-11-16T06:08:36.914Z,58.60
2023-11-16T06:11:03.481Z,57.43
2023-11-16T06:13:30.002Z,58.63
2023-11-16T06:15:56.536Z,58.26
2023-11-16T06:18:24.070Z,58.82
2023-11-16T06:20:50.518Z,58.26
2023-11-16T06:23:16.963Z,58.60
2023-11-16T06:25:43.489Z,58.42
2023-11-16T06:28:10.005Z,59.46
2023-11-16T06:30:36.458Z,59.22
2023-11-16T06:33:02.993Z,59.27
2023-11-16T06:35:29.519Z,58.40
2023-11-16T06:37:56.034Z,59.20
2023-11-16T06:40:22.503Z,59.17
2023-11-16T06:42:48.989Z,57.34
2023-11-16T06:45:15.515Z,58.16
2023-11-16T06:47:42.082Z,57.18
2023-11-16T06:50:08.685Z,57.15
2023-11-16T06:52:35.170Z,57.00
2023-11-16T06:55:01.987Z,57.82
2023-11-16T06:57:28.947Z,57.73
2023-11-16T06:59:55.488Z,56.80
2023-11-16T07:02:22.033Z,57.30
2023-11-16T07:04:48.497Z,57.64
2023-11-16T07:07:15.033Z,57.54
2023-11-16T07:09:41.536Z,58.19
2023-11-16T07:12:08.021Z,58.28
2023-11-16T07:14:43.608Z,58.29
2023-11-16T07:17:17.544Z,58.17
2023-11-16T07:19:44.075Z,57.97
2023-11-16T07:22:10.551Z,58.46
2023-11-16T07:24:36.979Z,58.73
2023-11-16T07:27:03.447Z,58.94
2023-11-16T07:29:29.857Z,58.92
2023-11-16T07:31:56.333Z,58.60
2023-11-16T07:34:22.729Z,58.79
2023-11-16T07:36:49.329Z,58.47
2023-11-16T07:39:15.909Z,57.65
2023-11-16T07:41:42.403Z,56.45
2023-11-16T07:44:08.854Z,57.49
2023-11-16T07:46:35.320Z,58.14
2023-11-16T07:49:01.800Z,57.85
2023-11-16T07:51:28.322Z,57.28
2023-11-16T07:53:54.876Z,56.89
2023-11-16T07:56:21.361Z,57.25
2023-11-16T07:58:47.820Z,57.38
2023-11-16T08:01:14.302Z,57.13
2023-11-16T08:03:40.991Z,58.20
2023-11-16T08:06:07.544Z,58.54
2023-11-16T08:08:33.996Z,58.73
2023-11-16T08:11:00.481Z,58.78
2023-11-16T08:13:29.081Z,58.58
2023-11-16T08:15:55.866Z,59.25
2023-11-16T08:18:22.367Z,59.00
2023-11-16T08:20:48.799Z,59.35
2023-11-16T08:23:15.315Z,59.90
2023-11-16T08:25:41.834Z,59.10
2023-11-16T08:28:08.313Z,59.86
2023-11-16T08:30:34.776Z,58.91
2023-11-16T08:33:01.279Z,58.98
2023-11-16T08:35:27.946Z,58.82
2023-11-16T08:37:54.427Z,58.18
2023-11-16T08:40:20.947Z,58.74
2023-11-16T08:42:47.372Z,58.06
2023-11-16T08:45:13.873Z,55.95
2023-11-16T08:47:40.297Z,56.56
2023-11-16T08:50:06.802Z,55.00
2023-11-16T08:52:33.221Z,55.32
2023-11-16T08:54:59.615Z,55.52
2023-11-16T08:57:26.181Z,55.40
2023-11-16T08:59:52.765Z,54.91
2023-11-16T09:02:19.158Z,53.92
2023-11-16T09:04:45.643Z,53.50
2023-11-16T09:07:12.111Z,53.13
2023-11-16T09:09:38.905Z,53.30
2023-11-16T09:12:05.402Z,52.70
2023-11-16T09:14:31.864Z,52.55
2023-11-16T09:17:09.516Z,52.30
2023-11-16T09:19:39.158Z,53.50
2023-11-16T09:22:05.624Z,53.94
2023-11-16T09:24:32.216Z,54.12
2023-11-16T09:26:58.774Z,53.93
2023-11-16T09:29:25.282Z,55.62
2023-11-16T09:31:51.808Z,55.79
2023-11-16T09:34:18.317Z,57.06
2023-11-16T09:36:44.823Z,57.08
2023-11-16T09:39:11.321Z,56.89
2023-11-16T09:41:37.801Z,56.65
2023-11-16T09:44:04.249Z,56.82
2023-11-16T09:46:30.770Z,56.98
2023-11-16T09:49:00.233Z,57.52
2023-11-16T09:51:27.008Z,57.28
2023-11-16T09:53:53.484Z,58.21
2023-11-16T09:56:24.682Z,57.49
2023-11-16T09:58:54.010Z,57.70
2023-11-16T10:01:20.499Z,57.93
2023-11-16T10:03:47.217Z,58.01
2023-11-16T10:06:13.770Z,57.67
2023-11-16T10:08:40.264Z,57.90
2023-11-16T10:11:06.771Z,58.07
2023-11-16T10:13:33.227Z,57.66
2023-11-16T10:15:59.815Z,58.15
2023-11-16T10:18:26.316Z,58.09
2023-11-16T10:20:52.824Z,58.25
2023-11-16T10:23:19.253Z,58.12
2023-11-16T10:25:45.677Z,56.68
2023-11-16T10:28:12.155Z,57.49
2023-11-16T10:30:38.645Z,58.05
2023-11-16T10:33:05.100Z,57.86
2023-11-16T10:35:31.511Z,57.64
2023-11-16T10:37:58.018Z,57.81
2023-11-16T10:40:24.474Z,57.11
2023-11-16T10:42:50.917Z,58.30
2023-11-16T10:45:17.433Z,56.51
2023-11-16T10:47:43.995Z,55.68
2023-11-16T10:50:10.620Z,53.96
2023-11-16T10:52:37.056Z,54.66
2023-11-16T10:55:05.512Z,54.45
2023-11-16T10:57:33.162Z,53.61
2023-11-16T10:59:59.641Z,54.03
2023-11-16T11:02:26.167Z,53.76
2023-11-16T11:04:52.868Z,52.10
2023-11-16T11:07:19.401Z,52.46
2023-11-16T11:09:45.998Z,53.32
2023-11-16T11:12:12.424Z,52.91
2023-11-16T11:14:38.864Z,52.63
2023-11-16T11:17:05.408Z,54.23
2023-11-16T11:19:31.921Z,61.15
2023-11-16T11:21:58.418Z,62.79
2023-11-16T11:24:24.900Z,62.40
2023-11-16T11:26:51.419Z,62.31
2023-11-16T11:29:17.822Z,62.70
2023-11-16T11:31:44.365Z,63.13
2023-11-16T11:34:10.821Z,63.54
2023-11-16T11:36:37.468Z,64.62
2023-11-16T11:39:03.915Z,63.74
2023-11-16T11:41:32.355Z,63.13
2023-11-16T11:43:58.826Z,62.14
2023-11-16T11:46:25.363Z,63.35
2023-11-16T11:48:51.813Z,64.10
2023-11-16T11:51:21.075Z,63.85
2023-11-16T11:53:49.782Z,62.07
2023-11-16T11:56:16.681Z,62.41
2023-11-16T11:58:43.306Z,62.45
2023-11-16T12:01:09.807Z,61.29
2023-11-16T12:03:36.448Z,62.24
2023-11-16T12:06:03.053Z,60.99
2023-11-16T12:08:29.573Z,61.36
2023-11-16T12:10:56.020Z,61.89
2023-11-16T12:13:22.566Z,63.15
2023-11-16T12:15:49.397Z,61.56
2023-11-16T12:18:17.124Z,61.55
2023-11-16T12:20:45.043Z,61.16
2023-11-16T12:23:11.557Z,61.39
2023-11-16T12:25:38.060Z,62.31
2023-11-16T12:28:04.585Z,63.32
2023-11-16T12:30:31.309Z,63.22
2023-11-16T12:32:57.731Z,62.15
2023-11-16T12:35:24.188Z,62.36
2023-11-16T12:37:50.719Z,62.50
2023-11-16T12:40:17.187Z,63.35
2023-11-16T12:42:43.671Z,62.40
2023-11-16T12:45:10.185Z,60.80
2023-11-16T12:47:38.120Z,60.37
2023-11-16T12:50:06.711Z,62.24
2023-11-16T12:52:33.316Z,61.69
2023-11-16T12:54:59.807Z,59.73
2023-11-16T12:57:26.461Z,60.73
2023-11-16T12:59:52.935Z,60.59
2023-11-16T13:02:19.788Z,60.46
2023-11-16T13:04:46.316Z,60.46
2023-11-16T13:07:12.804Z,60.36
2023-11-16T13:09:39.293Z,60.20
2023-11-16T13:12:12.571Z,60.60
2023-11-16T13:14:46.938Z,60.74
2023-11-16T13:17:13.529Z,61.42
2023-11-16T13:19:42.378Z,62.13
2023-11-16T13:22:08.829Z,61.14
2023-11-16T13:24:37.967Z,61.64
2023-11-16T13:27:04.449Z,61.32
2023-11-16T13:29:30.874Z,60.96
2023-11-16T13:31:57.342Z,63.39
2023-11-16T13:34:23.819Z,63.45
2023-11-16T13:36:50.316Z,63.12
2023-11-16T13:39:16.836Z,59.08
2023-11-16T13:41:43.240Z,58.23
2023-11-16T13:44:09.812Z,58.11
2023-11-16T13:46:36.272Z,56.69
2023-11-16T13:49:02.762Z,57.06
2023-11-16T13:51:29.201Z,56.65
2023-11-16T13:53:55.722Z,56.64
2023-11-16T13:56:22.139Z,57.61
2023-11-16T13:58:50.437Z,58.04
2023-11-16T14:01:18.351Z,58.47
2023-11-16T14:03:45.063Z,58.72
2023-11-16T14:06:11.624Z,57.46
2023-11-16T14:08:38.157Z,57.99
2023-11-16T14:11:04.663Z,58.82
2023-11-16T14:13:31.308Z,58.33
2023-11-16T14:16:04.628Z,59.38
2023-11-16T14:18:32.126Z,61.04
2023-11-16T14:20:58.688Z,60.95
2023-11-16T14:23:25.754Z,61.71
2023-11-16T14:25:54.533Z,61.19
2023-11-16T14:28:21.189Z,61.08
2023-11-16T14:30:47.728Z,61.01
2023-11-16T14:33:14.353Z,62.83
2023-11-16T14:35:40.882Z,63.24
2023-11-16T14:38:07.398Z,62.89
2023-11-16T14:40:33.904Z,63.55
2023-11-16T14:43:00.506Z,61.76
2023-11-16T14:45:27.076Z,61.64
2023-11-16T14:47:53.708Z,61.47
2023-11-16T14:50:20.299Z,61.93
2023-11-16T14:52:49.154Z,62.09
2023-11-16T14:55:19.526Z,61.97
2023-11-16T14:57:46.011Z,61.03
2023-11-16T15:00:12.590Z,61.58
2023-11-16T15:02:39.140Z,62.83
2023-11-16T15:05:09.585Z,63.16
2023-11-16T15:07:37.459Z,63.29
2023-11-16T15:10:04.084Z,63.54
2023-11-16T15:12:30.606Z,63.83
2023-11-16T15:14:57.251Z,62.91
2023-11-16T15:17:23.764Z,61.59
2023-11-16T15:19:50.303Z,61.99
2023-11-16T15:22:16.825Z,62.19
2023-11-16T15:24:43.390Z,60.88
2023-11-16T15:27:11.185Z,57.08
2023-11-16T15:29:39.057Z,57.44
2023-11-16T15:32:05.693Z,57.92
2023-11-16T15:34:32.386Z,57.58
2023-11-16T15:36:58.997Z,57.29
2023-11-16T15:39:25.532Z,56.63
2023-11-16T15:41:52.005Z,57.05
2023-11-16T15:44:18.461Z,56.70
2023-11-16T15:46:49.317Z,57.48
2023-11-16T15:49:18.773Z,57.41
2023-11-16T15:51:46.878Z,57.29
2023-11-16T15:54:13.506Z,56.52
2023-11-16T15:56:40.073Z,56.75
2023-11-16T15:59:08.682Z,57.90
2023-11-16T16:01:35.303Z,57.52
2023-11-16T16:04:03.312Z,57.93
2023-11-16T16:06:29.955Z,58.28
2023-11-16T16:08:56.483Z,57.88
2023-11-16T16:11:23.014Z,57.97
2023-11-16T16:13:49.562Z,57.84
2023-11-16T16:16:16.276Z,58.24
2023-11-16T16:18:42.896Z,58.70
2023-11-16T16:21:09.591Z,58.67
2023-11-16T16:23:36.105Z,58.63
2023-11-16T16:26:02.675Z,59.42
2023-11-16T16:28:29.274Z,58.99
2023-11-16T16:30:55.871Z,57.59
2023-11-16T16:33:22.345Z,59.18
2023-11-16T16:35:48.755Z,59.22
2023-11-16T16:38:15.218Z,58.44
2023-11-16T16:40:41.682Z,57.94
2023-11-16T16:43:08.208Z,58.36
2023-11-16T16:45:34.828Z,58.10
2023-11-16T16:48:06.935Z,58.53
2023-11-16T16:50:37.107Z,58.65
2023-11-16T16:53:03.612Z,58.89
2023-11-16T16:55:30.232Z,57.80
2023-11-16T16:57:56.940Z,57.55
2023-11-16T17:00:23.468Z,56.08
2023-11-16T17:02:52.429Z,54.66
2023-11-16T17:05:19.036Z,55.05
2023-11-16T17:07:45.492Z,55.08
2023-11-16T17:10:12.093Z,55.21
2023-11-16T17:12:38.624Z,53.82
2023-11-16T17:15:05.194Z,51.02
2023-11-16T17:17:31.884Z,53.37
2023-11-16T17:19:58.469Z,55.01
2023-11-16T17:22:24.912Z,56.06
2023-11-16T17:24:51.408Z,57.03
2023-11-16T17:27:19.504Z,55.41
2023-11-16T17:29:47.275Z,56.04
2023-11-16T17:32:13.865Z,56.37
2023-11-16T17:34:40.337Z,56.88
2023-11-16T17:37:06.867Z,57.40
2023-11-16T17:39:33.410Z,56.81
2023-11-16T17:42:00.344Z,57.06
2023-11-16T17:44:26.959Z,58.24
2023-11-16T17:46:53.534Z,58.20
2023-11-16T17:49:20.098Z,59.50
2023-11-16T17:51:46.713Z,59.59
2023-11-16T17:54:13.195Z,57.04
2023-11-16T17:56:39.910Z,53.86
2023-11-16T17:59:06.416Z,54.54
2023-11-16T18:01:32.911Z,54.88
2023-11-16T18:03:59.561Z,55.38
2023-11-16T18:06:26.124Z,55.83
2023-11-16T18:08:52.635Z,56.20
2023-11-16T18:11:19.090Z,53.88
2023-11-16T18:13:45.725Z,54.06
2023-11-16T18:16:12.225Z,54.45
2023-11-16T18:18:38.798Z,53.85
2023-11-16T18:21:05.313Z,54.81
2023-11-16T18:23:31.767Z,54.97
2023-11-16T18:25:58.327Z,54.62
2023-11-16T18:28:24.801Z,54.21
2023-11-16T18:30:51.365Z,53.64
2023-11-16T18:33:20.676Z,52.05
2023-11-16T18:35:47.175Z,51.57
2023-11-16T18:38:13.663Z,52.50
2023-11-16T18:40:40.152Z,52.31
2023-11-16T18:43:06.691Z,52.17
2023-11-16T18:45:33.281Z,52.54
2023-11-16T18:47:59.820Z,52.58
2023-11-16T18:50:26.332Z,53.92
2023-11-16T18:52:52.829Z,54.00
2023-11-16T18:55:19.790Z,52.46
2023-11-16T18:57:46.379Z,52.26
2023-11-16T19:00:12.917Z,51.06
2023-11-16T19:02:40.505Z,50.04
2023-11-16T19:05:07.077Z,49.63
2023-11-16T19:07:33.544Z,47.82
2023-11-16T19:10:00.024Z,46.89
2023-11-16T19:12:26.495Z,50.24
2023-11-16T19:14:53.004Z,49.88
2023-11-16T19:17:19.526Z,49.81
2023-11-16T19:19:46.016Z,44.87
2023-11-16T19:22:12.586Z,45.57
2023-11-16T19:24:39.123Z,47.38
2023-11-16T19:27:05.580Z,47.58
2023-11-16T19:29:32.053Z,47.70
2023-11-16T19:31:58.585Z,48.47
2023-11-16T19:34:25.091Z,49.97
2023-11-16T19:36:51.682Z,48.75
2023-11-16T19:39:18.197Z,49.58
2023-11-16T19:41:44.708Z,50.01
2023-11-16T19:44:11.199Z,47.46
2023-11-16T19:46:37.728Z,46.21
2023-11-16T19:49:04.217Z,48.53
2023-11-16T19:51:30.699Z,50.97
2023-11-16T19:53:57.206Z,48.70
2023-11-16T19:56:24.852Z,48.89
2023-11-16T19:58:52.329Z,48.05
2023-11-16T20:01:18.954Z,49.18
2023-11-16T20:03:47.090Z,52.23
2023-11-16T20:06:14.764Z,52.25
2023-11-16T20:08:41.200Z,51.22
2023-11-16T20:11:07.820Z,48.57
2023-11-16T20:13:34.379Z,48.91
2023-11-16T20:16:00.839Z,50.74
2023-11-16T20:18:27.345Z,49.31
2023-11-16T20:20:57.600Z,49.09
2023-11-16T20:23:26.381Z,48.18
2023-11-16T20:25:53.006Z,49.24
2023-11-16T20:28:19.517Z,46.91
2023-11-16T20:30:46.092Z,49.76
2023-11-16T20:33:12.670Z,53.02
2023-11-16T20:35:39.221Z,48.79
2023-11-16T20:38:05.676Z,51.97
2023-11-16T20:40:33.468Z,48.43
2023-11-16T20:42:59.969Z,51.49
2023-11-16T20:45:26.410Z,51.71
2023-11-16T20:47:53.025Z,50.67
2023-11-16T20:50:19.600Z,50.87
2023-11-16T20:52:46.172Z,50.40
2023-11-16T20:55:12.988Z,50.37
2023-11-16T20:57:39.752Z,47.18
2023-11-16T21:00:06.344Z,46.96
2023-11-16T21:02:32.940Z,48.73
2023-11-16T21:04:59.604Z,48.04
2023-11-16T21:07:26.057Z,50.51
2023-11-16T21:09:52.533Z,51.02
2023-11-16T21:12:19.028Z,49.46
2023-11-16T21:14:46.489Z,51.34
2023-11-16T21:17:12.951Z,48.67
2023-11-16T21:19:39.431Z,49.44
2023-11-16T21:22:05.932Z,48.39
2023-11-16T21:24:32.394Z,50.10
2023-11-16T21:26:58.923Z,49.47
2023-11-16T21:29:25.362Z,48.77
2023-11-16T21:31:51.953Z,45.72
2023-11-16T21:34:18.589Z,46.26
2023-11-16T21:36:45.002Z,47.36
2023-11-16T21:39:11.501Z,45.38
2023-11-16T21:41:37.976Z,47.66
2023-11-16T21:44:04.497Z,47.36
2023-11-16T21:46:31.083Z,48.28
2023-11-16T21:48:57.588Z,49.42
2023-11-16T21:51:24.123Z,49.60
2023-11-16T21:53:50.644Z,50.28
2023-11-16T21:56:17.149Z,50.71
2023-11-16T21:58:43.582Z,51.08
2023-11-16T22:01:10.035Z,51.98
2023-11-16T22:03:36.596Z,53.04
2023-11-16T22:06:03.060Z,53.30
2023-11-16T22:08:29.520Z,52.74
2023-11-16T22:10:55.952Z,52.63
2023-11-16T22:13:22.443Z,51.91
2023-11-16T22:15:49.067Z,50.41
2023-11-16T22:18:15.670Z,51.17
2023-11-16T22:20:42.068Z,51.65
2023-11-16T22:23:08.580Z,52.29
2023-11-16T22:25:35.116Z,51.49
2023-11-16T22:28:01.644Z,51.14
2023-11-16T22:30:28.128Z,49.59
2023-11-16T22:32:54.661Z,52.96
2023-11-16T22:35:21.200Z,51.41
2023-11-16T22:37:47.757Z,54.18
2023-11-16T22:40:14.356Z,51.96
2023-11-16T22:42:40.929Z,50.05
2023-11-16T22:45:07.389Z,52.08
2023-11-16T22:47:33.945Z,52.40
2023-11-16T22:50:00.424Z,52.16
2023-11-16T22:52:26.855Z,51.00
2023-11-16T22:54:53.400Z,54.84
2023-11-16T22:57:19.811Z,58.69
2023-11-16T22:59:46.266Z,61.63
2023-11-16T23:02:12.730Z,64.17
2023-11-16T23:04:39.342Z,67.06
2023-11-16T23:07:08.308Z,67.38
2023-11-16T23:09:34.748Z,68.29
2023-11-16T23:12:01.184Z,68.62
2023-11-16T23:14:27.626Z,70.31
2023-11-16T23:16:54.143Z,69.58
2023-11-16T23:19:20.790Z,69.35
2023-11-16T23:21:47.344Z,68.48
2023-11-16T23:24:13.865Z,68.60
2023-11-16T23:26:40.370Z,70.39
2023-11-16T23:29:06.807Z,68.00
2023-11-16T23:31:33.359Z,63.19
2023-11-16T23:33:59.910Z,63.95
2023-11-16T23:36:26.420Z,64.69
2023-11-16T23:38:52.946Z,63.56
2023-11-16T23:41:20.840Z,62.21
2023-11-16T23:43:48.933Z,61.06
2023-11-16T23:46:15.536Z,60.49
2023-11-16T23:48:42.091Z,61.06
2023-11-16T23:51:15.851Z,60.09
2023-11-16T23:53:46.102Z,59.26
2023-11-16T23:56:12.580Z,57.88
2023-11-16T23:58:39.054Z,57.46
